Time;durP1;ratioP1;P1;durP2;ratioP2;P2;SDS_P1;SDS_P2;PMS_P1;PMS_P2;Temp;Humidity;BMP_temperature;BMP_pressure;BME280_temperature;BME280_humidity;BME280_pressure;Samples;Min_cycle;Max_cycle;Signal;HPM_P1;HPM_P2
2023/09/17 00:00:29;;;;;;;10.70;7.18;;;14.50;94.30;;;;;;4987787;28;20080;-70
2023/09/17 00:02:58;;;;;;;10.63;7.10;;;14.50;94.70;;;;;;4984075;28;20026;-70
2023/09/17 00:05:24;;;;;;;9.38;6.57;;;14.50;95.00;;;;;;4985207;28;20042;-70
2023/09/17 00:07:49;;;;;;;10.13;7.05;;;14.40;95.10;;;;;;4987744;28;20026;-70
2023/09/17 00:10:15;;;;;;;9.68;7.50;;;14.40;94.80;;;;;;4972314;28;20139;-69
2023/09/17 00:12:40;;;;;;;9.00;6.70;;;14.40;94.70;;;;;;4983375;28;20391;-70
2023/09/17 00:15:07;;;;;;;10.90;7.72;;;14.40;95.20;;;;;;4990656;28;20042;-69
2023/09/17 00:17:32;;;;;;;9.30;7.40;;;14.40;95.00;;;;;;4983576;28;20041;-69
2023/09/17 00:19:58;;;;;;;12.30;8.38;;;14.40;94.90;;;;;;4990972;28;20039;-70
2023/09/17 00:22:24;;;;;;;12.07;7.50;;;14.30;94.90;;;;;;4991474;28;20030;-69
2023/09/17 00:24:50;;;;;;;9.43;7.07;;;14.30;94.90;;;;;;4988692;28;20471;-69
2023/09/17 00:27:15;;;;;;;8.95;7.18;;;14.30;94.80;;;;;;4992586;28;20030;-69
2023/09/17 00:29:41;;;;;;;9.68;6.80;;;14.20;94.50;;;;;;4982116;28;20062;-69
2023/09/17 00:32:07;;;;;;;10.43;6.97;;;14.20;94.30;;;;;;4983843;28;20119;-70
2023/09/17 00:34:32;;;;;;;11.40;7.35;;;14.20;94.70;;;;;;4973667;28;20045;-69
2023/09/17 00:37:00;;;;;;;11.20;7.82;;;14.10;95.40;;;;;;4979373;28;20038;-72
2023/09/17 00:39:29;;;;;;;13.25;7.82;;;14.20;95.60;;;;;;4988117;28;20439;-71
2023/09/17 00:41:54;;;;;;;13.93;7.88;;;14.10;95.40;;;;;;4989224;28;20066;-70
2023/09/17 00:44:20;;;;;;;8.75;7.30;;;14.20;95.30;;;;;;4986718;28;20528;-70
2023/09/17 00:46:46;;;;;;;8.95;7.00;;;14.10;95.30;;;;;;4984695;28;20520;-69
2023/09/17 00:49:14;;;;;;;10.88;8.20;;;14.20;95.60;;;;;;4990204;28;20057;-69
2023/09/17 00:51:40;;;;;;;9.90;7.60;;;14.10;95.50;;;;;;4990614;28;20029;-69
2023/09/17 00:54:07;;;;;;;11.95;8.00;;;14.10;95.60;;;;;;4991838;28;20031;-69
2023/09/17 00:56:33;;;;;;;9.60;7.18;;;14.10;95.70;;;;;;4987562;28;20372;-69
2023/09/17 00:58:59;;;;;;;8.85;6.85;;;14.00;95.20;;;;;;4987028;28;20085;-70
2023/09/17 01:01:25;;;;;;;10.70;7.22;;;14.00;95.30;;;;;;4980441;28;20865;-71
2023/09/17 01:03:51;;;;;;;10.52;8.32;;;14.00;95.40;;;;;;4987715;28;20034;-70
2023/09/17 01:06:16;;;;;;;10.88;7.68;;;14.00;95.50;;;;;;4984163;28;20030;-69
2023/09/17 01:08:42;;;;;;;11.75;8.02;;;14.00;95.80;;;;;;4987906;28;20042;-70
2023/09/17 01:11:09;;;;;;;10.55;8.07;;;14.00;96.00;;;;;;4992568;28;20034;-72
2023/09/17 01:13:40;;;;;;;10.60;7.75;;;14.00;95.80;;;;;;4978777;28;20043;-70
2023/09/17 01:16:06;;;;;;;10.07;8.40;;;13.90;95.40;;;;;;4990656;28;20498;-69
2023/09/17 01:18:33;;;;;;;11.52;8.55;;;13.90;95.70;;;;;;4980518;28;20050;-70
2023/09/17 01:21:07;;;;;;;11.05;8.18;;;13.90;95.70;;;;;;4982381;28;20374;-69
2023/09/17 01:23:39;;;;;;;10.35;8.25;;;13.90;95.50;;;;;;4990210;28;20062;-70
2023/09/17 01:26:16;;;;;;;9.85;7.50;;;13.80;95.40;;;;;;4992249;28;20050;-69
2023/09/17 01:28:41;;;;;;;12.13;8.15;;;13.80;95.10;;;;;;4987237;28;20121;-70
2023/09/17 01:31:09;;;;;;;11.48;7.88;;;13.80;95.20;;;;;;4987591;28;20117;-71
2023/09/17 01:33:35;;;;;;;10.32;8.48;;;13.70;95.40;;;;;;4985970;28;20077;-71
2023/09/17 01:36:08;;;;;;;12.00;8.85;;;13.70;95.20;;;;;;4985228;28;20027;-70
2023/09/17 01:38:40;;;;;;;11.63;7.78;;;13.70;95.50;;;;;;4983541;28;20494;-69
2023/09/17 01:41:07;;;;;;;12.25;8.10;;;13.60;95.30;;;;;;4988609;28;20057;-69
2023/09/17 01:43:34;;;;;;;11.07;7.93;;;13.70;95.30;;;;;;4971473;28;20164;-69
2023/09/17 01:46:00;;;;;;;10.93;9.02;;;13.60;95.60;;;;;;4987492;28;20026;-69
2023/09/17 01:48:27;;;;;;;10.23;8.52;;;13.70;95.90;;;;;;4985343;28;20022;-70
2023/09/17 01:50:54;;;;;;;11.32;8.43;;;13.70;96.00;;;;;;4972016;28;20386;-69
2023/09/17 01:53:20;;;;;;;12.73;10.13;;;13.60;95.70;;;;;;4983515;28;20031;-69
2023/09/17 01:55:49;;;;;;;11.25;8.95;;;13.50;95.40;;;;;;4981322;28;20035;-69
2023/09/17 01:58:16;;;;;;;12.85;9.15;;;13.60;95.70;;;;;;4984833;28;20039;-69
2023/09/17 02:00:42;;;;;;;11.93;9.57;;;13.60;95.90;;;;;;4985874;28;20019;-69
2023/09/17 02:03:08;;;;;;;12.80;9.88;;;13.60;96.00;;;;;;4985128;28;20045;-71
2023/09/17 02:05:34;;;;;;;13.27;9.82;;;13.50;96.10;;;;;;4987706;28;20053;-69
2023/09/17 02:07:59;;;;;;;12.57;9.27;;;13.50;96.40;;;;;;4972333;28;20479;-71
2023/09/17 02:10:25;;;;;;;13.43;10.05;;;13.50;96.30;;;;;;4983536;28;20085;-69
2023/09/17 02:12:50;;;;;;;13.23;10.10;;;13.50;96.30;;;;;;4986345;28;20516;-69
2023/09/17 02:15:16;;;;;;;14.98;10.35;;;13.50;96.40;;;;;;4985006;28;20042;-69
2023/09/17 02:17:42;;;;;;;16.60;10.57;;;13.50;96.30;;;;;;4976997;28;20066;-69
2023/09/17 02:20:11;;;;;;;13.73;10.63;;;13.50;96.20;;;;;;4987273;28;20034;-70
2023/09/17 02:22:39;;;;;;;13.98;11.05;;;13.50;96.30;;;;;;4989621;28;20070;-69
2023/09/17 02:25:06;;;;;;;12.80;10.27;;;13.50;96.10;;;;;;4986942;28;20054;-69
2023/09/17 02:27:32;;;;;;;14.30;10.98;;;13.50;96.10;;;;;;4981285;28;20038;-69
2023/09/17 02:29:58;;;;;;;14.73;10.98;;;13.50;96.10;;;;;;4988741;28;20037;-69
2023/09/17 02:32:23;;;;;;;15.98;11.80;;;13.50;96.30;;;;;;4980633;28;20053;-69
2023/09/17 02:34:49;;;;;;;15.35;11.73;;;13.50;96.40;;;;;;4987763;28;20121;-69
2023/09/17 02:37:14;;;;;;;13.82;11.25;;;13.40;96.30;;;;;;4997234;28;20068;-69
2023/09/17 02:39:40;;;;;;;14.85;11.02;;;13.50;96.20;;;;;;4972088;28;20038;-70
2023/09/17 02:42:06;;;;;;;13.70;10.90;;;13.50;96.30;;;;;;4989515;28;20054;-69
2023/09/17 02:44:31;;;;;;;15.25;12.07;;;13.50;96.20;;;;;;4990939;28;20460;-69
2023/09/17 02:46:57;;;;;;;15.75;11.77;;;13.50;96.40;;;;;;4986102;28;20066;-68
2023/09/17 02:49:22;;;;;;;12.32;10.35;;;13.60;96.50;;;;;;4995531;28;20101;-69
2023/09/17 02:51:50;;;;;;;14.40;12.32;;;13.60;96.50;;;;;;4991010;28;20471;-69
2023/09/17 02:54:15;;;;;;;17.67;12.38;;;13.60;96.50;;;;;;4988204;28;20073;-69
2023/09/17 02:56:42;;;;;;;15.25;10.88;;;13.60;96.50;;;;;;4971667;28;20590;-70
2023/09/17 02:59:08;;;;;;;14.90;11.90;;;13.60;96.40;;;;;;4968088;28;20065;-70
2023/09/17 03:01:35;;;;;;;17.20;11.82;;;13.60;96.30;;;;;;4969642;28;20121;-69
2023/09/17 03:04:01;;;;;;;15.80;12.50;;;13.60;96.40;;;;;;4989715;28;20037;-69
2023/09/17 03:06:26;;;;;;;15.85;12.23;;;13.60;96.30;;;;;;4989700;28;20402;-70
2023/09/17 03:08:51;;;;;;;18.15;11.60;;;13.60;96.40;;;;;;4984061;28;20145;-70
2023/09/17 03:11:17;;;;;;;15.18;10.60;;;13.60;96.60;;;;;;4970747;28;20096;-70
2023/09/17 03:13:46;;;;;;;15.23;11.38;;;13.60;96.70;;;;;;4986657;28;20035;-69
2023/09/17 03:16:15;;;;;;;15.05;10.73;;;13.60;97.00;;;;;;4979757;28;20081;-69
2023/09/17 03:18:44;;;;;;;13.25;10.25;;;13.60;96.80;;;;;;4986187;28;20030;-71
2023/09/17 03:21:10;;;;;;;15.30;11.18;;;13.50;96.90;;;;;;4994830;28;20034;-69
2023/09/17 03:23:36;;;;;;;13.20;10.15;;;13.50;96.90;;;;;;4991288;28;20450;-70
2023/09/17 03:26:03;;;;;;;12.40;9.50;;;13.50;96.80;;;;;;4980239;28;20065;-69
2023/09/17 03:28:32;;;;;;;15.50;10.82;;;13.50;97.20;;;;;;4991355;28;20066;-69
2023/09/17 03:30:59;;;;;;;14.98;10.13;;;13.50;97.30;;;;;;4974016;28;20065;-69
2023/09/17 03:33:24;;;;;;;13.40;10.45;;;13.50;97.20;;;;;;4982306;28;20035;-69
2023/09/17 03:35:51;;;;;;;13.90;10.57;;;13.50;97.20;;;;;;4985926;28;20039;-69
2023/09/17 03:38:17;;;;;;;14.73;9.73;;;13.50;97.20;;;;;;4991178;28;20143;-69
2023/09/17 03:40:42;;;;;;;13.43;10.23;;;13.50;97.20;;;;;;4992193;28;20114;-69
2023/09/17 03:43:08;;;;;;;13.30;9.60;;;13.40;97.20;;;;;;4989702;28;20042;-69
2023/09/17 03:45:34;;;;;;;13.32;10.13;;;13.40;97.30;;;;;;4995446;28;20038;-69
2023/09/17 03:48:01;;;;;;;12.07;9.15;;;13.40;97.50;;;;;;4993672;28;20026;-69
2023/09/17 03:50:30;;;;;;;13.98;9.70;;;13.40;97.30;;;;;;4991442;28;20122;-69
2023/09/17 03:52:57;;;;;;;11.15;8.95;;;13.30;97.00;;;;;;4989674;28;20026;-69
2023/09/17 03:55:23;;;;;;;12.73;9.35;;;13.20;96.70;;;;;;4998935;28;20089;-68
2023/09/17 03:57:50;;;;;;;12.15;8.90;;;13.10;96.40;;;;;;4988432;28;20059;-70
2023/09/17 04:00:17;;;;;;;14.00;8.18;;;13.10;96.10;;;;;;4986316;28;20034;-71
2023/09/17 04:02:43;;;;;;;10.48;7.97;;;13.10;96.10;;;;;;4980940;28;20076;-72
2023/09/17 04:05:11;;;;;;;10.18;7.95;;;13.10;96.10;;;;;;4983671;28;20030;-70
2023/09/17 04:07:39;;;;;;;10.90;8.13;;;13.10;96.40;;;;;;4988508;28;20491;-69
2023/09/17 04:10:06;;;;;;;11.32;8.45;;;13.10;96.80;;;;;;4979938;28;20023;-69
2023/09/17 04:12:39;;;;;;;10.68;8.65;;;13.10;96.80;;;;;;4997769;28;20152;-69
2023/09/17 04:15:09;;;;;;;10.30;7.63;;;13.10;96.80;;;;;;4974565;28;20072;-69
2023/09/17 04:17:34;;;;;;;10.45;7.43;;;13.00;96.90;;;;;;4985179;28;20030;-69
2023/09/17 04:20:00;;;;;;;10.88;7.68;;;13.00;96.90;;;;;;4989194;28;20434;-69
2023/09/17 04:22:25;;;;;;;9.82;7.82;;;12.90;96.70;;;;;;4992582;28;20046;-69
2023/09/17 04:24:51;;;;;;;8.75;7.32;;;12.90;96.70;;;;;;4987775;28;20064;-70
2023/09/17 04:27:16;;;;;;;10.13;7.90;;;12.90;96.50;;;;;;4999745;28;20507;-65
2023/09/17 04:29:42;;;;;;;10.95;8.10;;;12.90;96.20;;;;;;4990096;28;20027;-65
2023/09/17 04:32:07;;;;;;;10.50;8.35;;;12.80;96.00;;;;;;4982586;28;20717;-65
2023/09/17 04:34:33;;;;;;;10.60;7.50;;;12.80;95.80;;;;;;4989730;28;20442;-65
2023/09/17 04:36:58;;;;;;;10.20;8.20;;;12.90;96.40;;;;;;4986686;28;20037;-65
2023/09/17 04:39:25;;;;;;;10.27;7.53;;;12.90;96.70;;;;;;4990215;28;20486;-66
2023/09/17 04:41:50;;;;;;;10.10;7.70;;;12.80;96.80;;;;;;4987456;28;20755;-65
2023/09/17 04:44:16;;;;;;;11.95;8.38;;;12.80;96.90;;;;;;4981611;28;20079;-65
2023/09/17 04:46:43;;;;;;;11.10;7.90;;;12.80;97.00;;;;;;4970847;28;20053;-65
2023/09/17 04:49:09;;;;;;;10.68;8.50;;;12.80;97.10;;;;;;4985846;28;20073;-65
2023/09/17 04:51:34;;;;;;;10.88;8.35;;;12.80;97.20;;;;;;4987049;28;20034;-65
2023/09/17 04:54:04;;;;;;;11.02;8.23;;;12.80;97.10;;;;;;4991381;28;20144;-66
2023/09/17 04:56:32;;;;;;;10.23;8.27;;;12.80;96.90;;;;;;4967337;28;20034;-65
2023/09/17 04:59:01;;;;;;;11.55;8.73;;;12.70;97.00;;;;;;4987770;28;20121;-66
2023/09/17 05:01:27;;;;;;;12.75;9.52;;;12.70;96.80;;;;;;4969147;28;20108;-66
2023/09/17 05:03:53;;;;;;;10.77;8.77;;;12.70;96.70;;;;;;4989760;28;20042;-65
2023/09/17 05:06:19;;;;;;;10.07;8.18;;;12.70;96.70;;;;;;4983347;28;20109;-64
2023/09/17 05:08:44;;;;;;;12.77;10.05;;;12.70;96.60;;;;;;4989835;28;20113;-65
2023/09/17 05:11:10;;;;;;;12.60;9.77;;;12.80;96.50;;;;;;4990374;28;20109;-67
2023/09/17 05:13:36;;;;;;;12.77;9.75;;;12.80;96.50;;;;;;4988845;28;20122;-65
2023/09/17 05:16:03;;;;;;;13.25;10.40;;;12.80;96.70;;;;;;4989147;28;20167;-65
2023/09/17 05:18:28;;;;;;;12.48;9.80;;;12.90;96.60;;;;;;4985506;28;20521;-65
2023/09/17 05:20:54;;;;;;;11.38;9.80;;;13.00;96.90;;;;;;4981509;28;20070;-65
2023/09/17 05:23:20;;;;;;;14.30;9.80;;;13.10;97.10;;;;;;4979163;28;21787;-66
2023/09/17 05:25:46;;;;;;;14.20;11.07;;;13.20;97.20;;;;;;4981712;28;20069;-65
2023/09/17 05:28:11;;;;;;;16.05;11.18;;;13.40;97.30;;;;;;4979441;28;20027;-66
2023/09/17 05:30:37;;;;;;;14.25;11.43;;;13.50;97.30;;;;;;4971721;28;20042;-66
2023/09/17 05:33:04;;;;;;;16.23;11.70;;;13.60;97.20;;;;;;4958743;28;20043;-66
2023/09/17 05:35:34;;;;;;;14.48;11.75;;;13.70;97.30;;;;;;4978151;28;20093;-69
2023/09/17 05:37:59;;;;;;;14.80;11.48;;;13.80;97.20;;;;;;4984589;28;20038;-66
2023/09/17 05:40:25;;;;;;;15.50;11.73;;;14.00;97.20;;;;;;4960435;28;20576;-67
2023/09/17 05:42:51;;;;;;;12.90;10.43;;;14.10;97.30;;;;;;4986246;28;20124;-66
2023/09/17 05:45:17;;;;;;;18.10;11.68;;;14.20;97.20;;;;;;4977359;28;20033;-66
2023/09/17 05:47:43;;;;;;;16.00;11.35;;;14.30;97.20;;;;;;4982374;28;20046;-66
2023/09/17 05:50:09;;;;;;;15.00;11.70;;;14.40;97.10;;;;;;4980343;28;20053;-66
2023/09/17 05:52:35;;;;;;;15.73;11.02;;;14.50;97.00;;;;;;4990911;28;20030;-66
2023/09/17 05:55:04;;;;;;;15.32;11.60;;;14.50;96.90;;;;;;4990870;28;20053;-66
2023/09/17 05:57:30;;;;;;;16.02;11.23;;;14.60;96.80;;;;;;4963907;28;20073;-67
2023/09/17 05:59:55;;;;;;;12.95;10.40;;;14.70;96.70;;;;;;4994462;28;20034;-66
2023/09/17 06:02:21;;;;;;;14.75;11.60;;;14.80;96.60;;;;;;4964220;28;20041;-66
2023/09/17 06:04:51;;;;;;;13.48;10.50;;;14.80;96.40;;;;;;4988735;28;20064;-66
2023/09/17 06:07:16;;;;;;;12.88;9.52;;;14.90;96.30;;;;;;4993566;28;20030;-66
2023/09/17 06:09:42;;;;;;;14.88;9.77;;;15.00;96.10;;;;;;4983067;28;20038;-67
2023/09/17 06:12:07;;;;;;;10.35;8.73;;;15.00;96.20;;;;;;4982941;28;20038;-67
2023/09/17 06:14:33;;;;;;;13.13;9.55;;;15.10;96.30;;;;;;4977815;28;20026;-69
2023/09/17 06:16:58;;;;;;;11.85;9.05;;;15.10;96.10;;;;;;4974819;28;20101;-66
2023/09/17 06:19:24;;;;;;;12.02;8.70;;;15.20;96.10;;;;;;4979355;28;20541;-66
2023/09/17 06:21:49;;;;;;;10.60;8.90;;;15.20;96.10;;;;;;4989653;28;20046;-65
2023/09/17 06:24:16;;;;;;;10.68;8.82;;;15.40;96.20;;;;;;4966087;28;20046;-66
2023/09/17 06:26:41;;;;;;;10.00;8.25;;;15.30;95.90;;;;;;4970483;28;20391;-66
2023/09/17 06:29:07;;;;;;;11.70;8.43;;;15.40;95.70;;;;;;4965637;28;20027;-67
2023/09/17 06:31:32;;;;;;;12.73;8.05;;;15.50;95.50;;;;;;4969313;28;20042;-66
2023/09/17 06:33:58;;;;;;;9.80;7.88;;;15.60;95.40;;;;;;4966507;28;20030;-66
2023/09/17 06:36:24;;;;;;;9.40;7.30;;;15.60;95.40;;;;;;4966226;28;20516;-66
2023/09/17 06:38:49;;;;;;;11.32;7.65;;;15.60;95.20;;;;;;4972360;28;20031;-67
2023/09/17 06:41:14;;;;;;;9.52;6.85;;;15.70;95.30;;;;;;4968279;28;20035;-69
2023/09/17 06:43:40;;;;;;;11.25;7.22;;;15.80;95.40;;;;;;4964141;28;20113;-66
2023/09/17 06:46:06;;;;;;;7.82;6.20;;;15.90;95.60;;;;;;4970993;28;20380;-66
2023/09/17 06:48:31;;;;;;;10.13;6.78;;;15.90;95.30;;;;;;4967589;28;20113;-66
2023/09/17 06:50:57;;;;;;;8.60;6.70;;;16.00;95.10;;;;;;4966368;28;20038;-66
2023/09/17 06:53:23;;;;;;;8.10;5.90;;;16.00;94.90;;;;;;4973672;28;20157;-65
2023/09/17 06:55:49;;;;;;;10.63;6.70;;;16.00;94.90;;;;;;4976226;28;20097;-66
2023/09/17 06:58:16;;;;;;;9.00;6.53;;;16.10;95.00;;;;;;4963738;28;20110;-67
2023/09/17 07:00:43;;;;;;;8.70;6.55;;;16.20;95.20;;;;;;4964670;28;20019;-66
2023/09/17 07:03:08;;;;;;;9.13;6.50;;;16.20;95.00;;;;;;4964414;28;20042;-66
2023/09/17 07:05:33;;;;;;;7.88;6.35;;;16.30;94.60;;;;;;4974225;28;20027;-66
2023/09/17 07:07:59;;;;;;;8.32;6.07;;;16.30;93.80;;;;;;4974832;28;20027;-66
2023/09/17 07:10:25;;;;;;;9.30;6.45;;;16.40;93.60;;;;;;4975241;28;20031;-67
2023/09/17 07:12:51;;;;;;;9.20;6.32;;;16.50;93.60;;;;;;4972483;28;20467;-66
2023/09/17 07:15:18;;;;;;;9.23;5.70;;;16.60;93.50;;;;;;4967325;28;20019;-66
2023/09/17 07:17:44;;;;;;;7.97;5.78;;;16.70;93.40;;;;;;4959654;28;20031;-66
2023/09/17 07:20:13;;;;;;;9.10;5.85;;;17.00;93.60;;;;;;4968019;28;20341;-65
2023/09/17 07:22:39;;;;;;;8.13;5.05;;;17.00;93.10;;;;;;4971247;28;20337;-67
2023/09/17 07:25:04;;;;;;;6.55;5.13;;;17.20;92.60;;;;;;4970898;28;20038;-66
2023/09/17 07:27:30;;;;;;;8.05;5.97;;;17.30;92.40;;;;;;4969855;28;20721;-66
2023/09/17 07:29:56;;;;;;;7.93;5.60;;;17.40;92.30;;;;;;4968614;28;20050;-65
2023/09/17 07:32:25;;;;;;;8.13;5.30;;;17.60;92.20;;;;;;4968760;28;20022;-65
2023/09/17 07:34:51;;;;;;;7.50;5.25;;;17.60;91.20;;;;;;4964403;28;20027;-66
2023/09/17 07:37:18;;;;;;;7.10;5.20;;;17.80;91.20;;;;;;4971562;28;20527;-65
2023/09/17 07:39:46;;;;;;;8.32;5.28;;;18.00;91.30;;;;;;4972811;28;20022;-65
2023/09/17 07:42:12;;;;;;;7.70;5.30;;;18.00;89.60;;;;;;4964151;28;20467;-65
2023/09/17 07:44:38;;;;;;;6.40;4.88;;;18.20;89.40;;;;;;4963755;28;20019;-66
2023/09/17 07:47:05;;;;;;;6.55;5.05;;;18.30;88.90;;;;;;4965374;28;20039;-66
2023/09/17 07:49:31;;;;;;;7.25;4.57;;;18.40;88.10;;;;;;4969592;28;20022;-68
2023/09/17 07:51:57;;;;;;;6.40;4.82;;;18.50;88.90;;;;;;4965201;28;20061;-65
2023/09/17 07:54:22;;;;;;;11.80;4.70;;;18.70;89.20;;;;;;4969400;28;20022;-66
2023/09/17 07:56:48;;;;;;;6.22;4.72;;;18.70;88.50;;;;;;4970697;28;20031;-68
2023/09/17 07:59:13;;;;;;;5.97;4.30;;;18.90;89.20;;;;;;4967045;28;20142;-66
2023/09/17 08:01:39;;;;;;;7.50;4.55;;;19.00;89.30;;;;;;4967075;28;20042;-66
2023/09/17 08:04:04;;;;;;;7.47;4.65;;;19.20;88.90;;;;;;4961850;28;20500;-67
2023/09/17 08:06:34;;;;;;;5.80;3.78;;;19.50;87.30;;;;;;4963815;28;20040;-65
2023/09/17 08:08:59;;;;;;;6.80;4.50;;;19.60;87.40;;;;;;4969093;28;20033;-65
2023/09/17 08:11:29;;;;;;;6.13;3.90;;;19.60;85.00;;;;;;4963588;28;20023;-67
2023/09/17 08:13:54;;;;;;;5.78;3.90;;;19.70;83.80;;;;;;4960983;28;20042;-67
2023/09/17 08:16:21;;;;;;;6.65;4.22;;;19.90;84.10;;;;;;4966323;28;20434;-68
2023/09/17 08:18:46;;;;;;;7.28;4.20;;;20.00;84.20;;;;;;4972207;28;20130;-66
2023/09/17 08:21:12;;;;;;;7.13;3.80;;;20.10;84.40;;;;;;4974683;28;20507;-66
2023/09/17 08:23:37;;;;;;;5.82;3.83;;;20.20;84.20;;;;;;4973737;28;20065;-67
2023/09/17 08:26:04;;;;;;;7.75;4.07;;;20.20;83.40;;;;;;4999472;28;20045;-69
2023/09/17 08:28:30;;;;;;;7.63;3.90;;;20.20;81.20;;;;;;4973887;28;20359;-66
2023/09/17 08:30:55;;;;;;;7.43;3.47;;;20.30;81.50;;;;;;4986217;28;20044;-67
2023/09/17 08:33:21;;;;;;;5.88;3.83;;;20.70;81.90;;;;;;4982662;28;20030;-67
2023/09/17 08:35:46;;;;;;;6.78;3.53;;;21.10;82.40;;;;;;4991092;28;20047;-66
2023/09/17 08:38:12;;;;;;;6.05;3.67;;;21.20;77.90;;;;;;4989121;28;20451;-66
2023/09/17 08:40:39;;;;;;;7.13;3.33;;;21.20;79.80;;;;;;4981311;28;20030;-67
2023/09/17 08:43:05;;;;;;;5.50;3.10;;;21.30;78.30;;;;;;4982849;28;20454;-66
2023/09/17 08:45:31;;;;;;;4.93;3.30;;;21.40;78.40;;;;;;4989773;28;20065;-65
2023/09/17 08:47:57;;;;;;;5.68;3.70;;;21.30;76.60;;;;;;4982545;28;20033;-66
2023/09/17 08:50:25;;;;;;;7.18;3.40;;;21.30;77.20;;;;;;4992525;28;20034;-66
2023/09/17 08:52:55;;;;;;;4.88;3.00;;;21.60;77.40;;;;;;4982938;28;20023;-67
2023/09/17 08:55:22;;;;;;;4.85;3.35;;;21.80;78.70;;;;;;4988368;28;20205;-67
2023/09/17 08:57:57;;;;;;;5.28;3.40;;;22.00;76.70;;;;;;4988329;28;20038;-68
2023/09/17 09:00:23;;;;;;;4.65;2.75;;;22.00;75.60;;;;;;4990083;28;20031;-66
2023/09/17 09:02:55;;;;;;;7.65;3.17;;;22.20;73.50;;;;;;4990317;28;20043;-66
2023/09/17 09:05:25;;;;;;;5.55;3.00;;;22.80;74.30;;;;;;4943925;28;20483;-66
2023/09/17 09:07:51;;;;;;;5.07;3.05;;;22.60;72.80;;;;;;4984782;28;20394;-66
2023/09/17 09:10:18;;;;;;;7.43;3.42;;;22.90;72.60;;;;;;4989663;28;20035;-66
2023/09/17 09:12:45;;;;;;;5.50;3.05;;;23.00;70.90;;;;;;4990682;28;20049;-68
2023/09/17 09:15:11;;;;;;;5.25;3.25;;;23.10;71.80;;;;;;4983638;28;20085;-66
2023/09/17 09:17:40;;;;;;;4.70;2.60;;;23.00;70.20;;;;;;4978825;28;20717;-67
2023/09/17 09:20:09;;;;;;;4.05;2.67;;;23.10;70.20;;;;;;4988833;28;20525;-67
2023/09/17 09:22:35;;;;;;;4.93;3.13;;;23.60;72.80;;;;;;4984851;28;20042;-68
2023/09/17 09:25:02;;;;;;;3.95;2.67;;;23.80;69.50;;;;;;4993669;28;20436;-67
2023/09/17 09:27:28;;;;;;;4.25;2.50;;;23.80;69.80;;;;;;4990133;28;20033;-66
2023/09/17 09:29:53;;;;;;;4.57;2.60;;;23.70;69.50;;;;;;4982107;28;20026;-66
2023/09/17 09:32:19;;;;;;;4.38;2.53;;;24.30;70.00;;;;;;4982750;28;20067;-66
2023/09/17 09:34:46;;;;;;;5.15;2.90;;;24.40;68.50;;;;;;4987517;28;20038;-66
2023/09/17 09:37:12;;;;;;;5.30;2.95;;;24.40;68.80;;;;;;4972383;28;20088;-67
2023/09/17 09:39:40;;;;;;;4.78;2.92;;;24.40;66.50;;;;;;4998063;28;20471;-67
2023/09/17 09:42:07;;;;;;;4.60;2.88;;;24.40;67.20;;;;;;4987280;28;20042;-66
2023/09/17 09:44:34;;;;;;;4.00;2.78;;;24.10;66.30;;;;;;4984967;28;20379;-66
2023/09/17 09:47:02;;;;;;;3.90;2.88;;;24.00;68.00;;;;;;4969184;28;20467;-67
2023/09/17 09:49:28;;;;;;;4.55;3.05;;;23.60;68.90;;;;;;4986606;28;20030;-66
2023/09/17 09:51:57;;;;;;;5.95;2.75;;;23.50;70.30;;;;;;4988179;28;20406;-66
2023/09/17 09:54:23;;;;;;;6.53;2.85;;;23.50;70.00;;;;;;5004175;28;20053;-67
2023/09/17 09:56:49;;;;;;;4.43;2.72;;;24.10;69.80;;;;;;4990833;28;20039;-67
2023/09/17 09:59:16;;;;;;;3.50;2.58;;;24.70;70.10;;;;;;4985622;28;20088;-66
2023/09/17 10:01:42;;;;;;;3.88;2.53;;;25.00;70.20;;;;;;4987492;28;20077;-67
2023/09/17 10:04:11;;;;;;;4.80;3.03;;;25.00;69.20;;;;;;4991401;28;20070;-68
2023/09/17 10:06:38;;;;;;;5.03;2.58;;;25.40;67.80;;;;;;4986374;28;20092;-68
2023/09/17 10:09:06;;;;;;;4.18;2.70;;;25.50;65.00;;;;;;4986106;28;20034;-67
2023/09/17 10:11:32;;;;;;;4.03;2.50;;;25.80;67.40;;;;;;4968844;28;20035;-67
2023/09/17 10:14:05;;;;;;;3.70;2.35;;;25.50;63.80;;;;;;4985441;28;20356;-69
2023/09/17 10:16:32;;;;;;;3.17;2.50;;;25.60;65.40;;;;;;4991016;28;20515;-68
2023/09/17 10:18:59;;;;;;;3.90;2.40;;;25.50;64.60;;;;;;4989817;28;20030;-67
2023/09/17 10:21:26;;;;;;;6.00;2.75;;;25.80;62.70;;;;;;4997244;28;20045;-66
2023/09/17 10:23:54;;;;;;;4.28;2.47;;;26.00;63.50;;;;;;4988300;28;20471;-67
2023/09/17 10:26:23;;;;;;;3.17;2.10;;;26.00;62.00;;;;;;4997706;28;20034;-69
2023/09/17 10:28:50;;;;;;;4.10;2.50;;;25.80;62.10;;;;;;4999382;28;20037;-68
2023/09/17 10:31:16;;;;;;;3.05;2.22;;;26.00;61.30;;;;;;4984119;28;20029;-69
2023/09/17 10:33:48;;;;;;;7.25;2.72;;;26.40;62.70;;;;;;4981169;28;20038;-67
2023/09/17 10:36:15;;;;;;;3.83;2.20;;;26.50;61.30;;;;;;4990711;28;20363;-67
2023/09/17 10:38:43;;;;;;;4.15;2.38;;;26.80;61.00;;;;;;4990645;28;20044;-67
2023/09/17 10:41:10;;;;;;;3.88;2.42;;;26.40;59.40;;;;;;4987136;28;20054;-67
2023/09/17 10:43:36;;;;;;;3.50;2.30;;;26.50;58.20;;;;;;4991067;28;20050;-67
2023/09/17 10:46:05;;;;;;;4.60;2.40;;;26.00;59.50;;;;;;4986702;28;20085;-69
2023/09/17 10:48:32;;;;;;;4.55;2.35;;;25.70;61.10;;;;;;4992593;28;20057;-68
2023/09/17 10:50:59;;;;;;;3.47;2.22;;;25.20;60.00;;;;;;4990910;28;20092;-67
2023/09/17 10:53:28;;;;;;;4.72;2.47;;;25.80;59.50;;;;;;4993780;28;20037;-67
2023/09/17 10:56:03;;;;;;;4.93;2.38;;;26.20;61.60;;;;;;4980558;28;20039;-66
2023/09/17 10:58:39;;;;;;;4.30;2.55;;;26.00;58.50;;;;;;4981189;28;20030;-71
2023/09/17 11:01:12;;;;;;;4.75;2.38;;;26.30;59.30;;;;;;4955827;28;20038;-67
2023/09/17 11:03:41;;;;;;;3.08;2.17;;;25.70;59.10;;;;;;4982463;28;20042;-69
2023/09/17 11:06:15;;;;;;;3.70;2.17;;;25.30;61.30;;;;;;4955240;28;20051;-67
2023/09/17 11:08:46;;;;;;;3.97;2.47;;;25.10;62.60;;;;;;4988784;28;20046;-67
2023/09/17 11:11:14;;;;;;;3.63;2.28;;;25.30;64.10;;;;;;4984926;28;20045;-67
2023/09/17 11:13:42;;;;;;;3.67;2.17;;;25.30;64.80;;;;;;4983999;28;20046;-68
2023/09/17 11:16:08;;;;;;;4.28;2.55;;;25.20;63.50;;;;;;4982540;28;20069;-68
2023/09/17 11:18:34;;;;;;;5.20;2.40;;;25.40;64.60;;;;;;4982405;28;20149;-67
2023/09/17 11:21:10;;;;;;;6.00;2.40;;;25.30;65.50;;;;;;4989477;28;20082;-67
2023/09/17 11:23:43;;;;;;;3.22;2.20;;;25.30;62.50;;;;;;4986492;28;20495;-67
2023/09/17 11:26:11;;;;;;;4.22;2.30;;;25.50;61.10;;;;;;4981145;28;20050;-67
2023/09/17 11:28:38;;;;;;;3.97;2.25;;;25.80;64.10;;;;;;4987379;28;20097;-67
2023/09/17 11:31:09;;;;;;;5.65;2.22;;;25.70;61.80;;;;;;4983838;28;20034;-66
2023/09/17 11:33:35;;;;;;;;;;;25.60;63.60;;;;;;4988800;28;20030;-68
2023/09/17 11:36:01;;;;;;;2.90;1.98;;;25.40;63.10;;;;;;4986871;28;20373;-67
2023/09/17 11:38:29;;;;;;;4.45;2.47;;;25.50;62.00;;;;;;4990341;28;20035;-67
2023/09/17 11:41:30;;;;;;;3.65;2.25;;;25.40;62.90;;;;;;4989236;28;20061;-67
2023/09/17 11:43:55;;;;;;;4.18;2.05;;;25.70;63.10;;;;;;4990311;28;20073;-69
2023/09/17 11:46:21;;;;;;;2.83;2.20;;;26.00;62.30;;;;;;4974201;28;20062;-68
2023/09/17 11:48:46;;;;;;;4.35;2.35;;;26.20;61.20;;;;;;4979375;28;20043;-66
2023/09/17 11:51:29;;;;;;;3.67;2.15;;;26.10;63.10;;;;;;4975710;28;20030;-66
2023/09/17 11:54:00;;;;;;;3.08;2.03;;;26.00;62.30;;;;;;4991709;28;20452;-67
2023/09/17 11:56:34;;;;;;;2.67;2.20;;;25.70;62.80;;;;;;4994822;28;20083;-70
2023/09/17 11:59:08;;;;;;;4.22;2.42;;;25.50;63.90;;;;;;4988877;28;20042;-67
2023/09/17 12:01:41;;;;;;;3.67;2.40;;;25.60;65.70;;;;;;4980781;28;20033;-67
2023/09/17 12:04:08;;;;;;;3.83;2.33;;;25.50;66.50;;;;;;4983862;28;20026;-67
2023/09/17 12:06:42;;;;;;;3.97;2.47;;;25.40;65.60;;;;;;4952369;28;20049;-67
2023/09/17 12:09:31;;;;;;;4.13;2.13;;;25.20;65.00;;;;;;4986302;28;20425;-66
2023/09/17 12:11:57;;;;;;;4.25;2.33;;;25.00;65.40;;;;;;4984917;28;20121;-67
2023/09/17 12:14:23;;;;;;;3.80;2.45;;;24.90;67.20;;;;;;4990133;28;20369;-67
2023/09/17 12:16:49;;;;;;;3.17;2.38;;;24.80;68.00;;;;;;4983508;28;20080;-68
2023/09/17 12:19:17;;;;;;;6.18;2.58;;;24.70;67.80;;;;;;4990476;28;20109;-68
2023/09/17 12:21:45;;;;;;;3.78;2.40;;;24.60;69.20;;;;;;4990831;28;20030;-68
2023/09/17 12:24:40;;;;;;;5.50;2.45;;;24.40;68.80;;;;;;4994067;28;20470;-68
2023/09/17 12:27:24;;;;;;;3.38;2.20;;;24.20;69.70;;;;;;4990090;28;20026;-67
2023/09/17 12:29:55;;;;;;;4.32;2.50;;;24.20;71.40;;;;;;4992136;28;20015;-69
2023/09/17 12:32:25;;;;;;;4.07;2.70;;;24.00;73.10;;;;;;4985714;28;20451;-67
2023/09/17 12:34:52;;;;;;;6.20;2.92;;;23.70;76.50;;;;;;4989552;28;20068;-67
2023/09/17 12:37:18;;;;;;;3.97;2.47;;;23.40;78.40;;;;;;4978249;28;20034;-69
2023/09/17 12:39:44;;;;;;;6.93;3.58;;;23.20;78.00;;;;;;4985671;28;20142;-69